Time;durP1;ratioP1;P1;durP2;ratioP2;P2;SDS_P1;SDS_P2;PMS_P1;PMS_P2;Temp;Humidity;BMP_temperature;BMP_pressure;BME280_temperature;BME280_humidity;BME280_pressure;Samples;Min_cycle;Max_cycle;Signal;HPM_P1;HPM_P2
2023/04/08 00:02:54;;;;;;;8.77;5.80;;;;;;;15.24;44.79;99940.91;10530364;28;20214;-72
2023/04/08 00:07:56;;;;;;;6.37;5.73;;;;;;;15.21;44.93;99937.81;10528811;28;20246;-72
2023/04/08 00:12:59;;;;;;;6.40;5.60;;;;;;;13.50;47.51;99877.22;10519732;28;20213;-73
2023/04/08 00:18:01;;;;;;;7.07;6.10;;;;;;;14.59;45.60;99927.31;10538672;28;20231;-73
2023/04/08 00:23:03;;;;;;;8.30;5.97;;;;;;;13.59;47.38;99889.47;10541834;28;20711;-72
2023/04/08 00:28:04;;;;;;;6.43;5.73;;;;;;;14.60;45.84;99915.50;10530972;28;20230;-73
2023/04/08 00:33:07;;;;;;;7.63;6.10;;;;;;;14.68;45.65;99912.59;10529365;28;20213;-72
2023/04/08 00:38:09;;;;;;;6.97;6.27;;;;;;;14.54;45.50;99905.56;10526745;28;20211;-70
2023/04/08 00:43:11;;;;;;;7.90;6.67;;;;;;;14.65;45.75;99922.97;10542852;28;20202;-72
2023/04/08 00:48:13;;;;;;;8.50;6.77;;;;;;;14.81;45.22;99917.13;10534671;28;20229;-72
2023/04/08 00:53:17;;;;;;;7.43;6.60;;;;;;;15.46;44.44;99949.56;10532397;28;20590;-72
2023/04/08 00:58:19;;;;;;;7.90;7.10;;;;;;;13.07;47.57;99827.19;10540243;28;20219;-73
2023/04/08 01:03:41;;;;;;;7.17;6.47;;;;;;;12.33;50.09;99850.91;10534315;28;20230;-72
2023/04/08 01:08:44;;;;;;;7.10;5.53;;;;;;;12.40;49.66;99872.44;10537132;28;20217;-72
2023/04/08 01:13:51;;;;;;;7.33;6.17;;;;;;;12.30;50.08;99861.16;10531202;28;20699;-72
2023/04/08 01:18:54;;;;;;;6.87;6.17;;;;;;;13.26;48.53;99931.28;10540333;28;20250;-72
2023/04/08 01:24:17;;;;;;;7.87;6.97;;;;;;;13.15;48.63;99907.63;10535859;28;20226;-73
2023/04/08 01:29:19;;;;;;;7.93;6.97;;;;;;;14.35;46.13;99920.69;10534675;28;20230;-73
2023/04/08 01:34:22;;;;;;;10.80;7.97;;;;;;;13.40;48.00;99896.44;10529562;28;20202;-72
2023/04/08 01:39:25;;;;;;;8.97;7.40;;;;;;;14.18;47.25;99928.31;10535322;28;20394;-73
2023/04/08 01:44:29;;;;;;;9.50;7.67;;;;;;;14.26;46.97;99924.63;10537390;28;20460;-73
2023/04/08 01:49:31;;;;;;;10.33;8.10;;;;;;;14.90;45.28;99936.66;10532971;28;20213;-73
2023/04/08 01:54:34;;;;;;;10.83;9.63;;;;;;;13.95;47.04;99885.59;10530000;28;20210;-73
2023/04/08 01:59:39;;;;;;;10.77;9.40;;;;;;;14.02;46.37;99891.84;10527534;28;20226;-73
2023/04/08 02:04:40;;;;;;;12.77;10.87;;;;;;;12.69;49.24;99911.69;10526662;28;20728;-72
2023/04/08 02:09:42;;;;;;;14.70;11.70;;;;;;;13.39;48.08;99878.63;10535176;28;20275;-72
2023/04/08 02:14:45;;;;;;;13.33;11.07;;;;;;;13.01;48.83;99913.94;10527652;28;20660;-71
2023/04/08 02:19:55;;;;;;;13.90;11.50;;;;;;;13.16;48.54;99920.06;10534352;28;20441;-71
2023/04/08 02:25:00;;;;;;;12.37;10.80;;;;;;;13.15;48.44;99896.06;10537083;28;20589;-72
2023/04/08 02:30:06;;;;;;;14.73;11.63;;;;;;;12.73;49.46;99920.19;10535711;28;20233;-72
2023/04/08 02:35:11;;;;;;;17.07;12.47;;;;;;;13.04;48.61;99886.69;10527453;28;20256;-73
2023/04/08 02:40:28;;;;;;;20.03;13.97;;;;;;;14.40;46.68;99942.44;10529284;28;20237;-73
2023/04/08 02:45:34;;;;;;;18.37;14.47;;;;;;;14.68;45.50;99942.22;10528593;28;20734;-72
2023/04/08 02:50:36;;;;;;;19.77;14.70;;;;;;;13.58;47.48;99902.09;10510727;28;20260;-72
2023/04/08 02:55:38;;;;;;;17.60;14.57;;;;;;;13.09;47.80;99866.28;10533099;28;20206;-72
2023/04/08 03:00:40;;;;;;;18.13;13.90;;;;;;;13.75;46.65;99912.44;10526746;28;20267;-72
2023/04/08 03:05:42;;;;;;;17.77;14.43;;;;;;;14.98;45.15;99949.88;10530141;28;20305;-72
2023/04/08 03:10:44;;;;;;;19.70;14.20;;;;;;;13.50;47.62;99879.91;10524903;28;20927;-73
2023/04/08 03:15:45;;;;;;;18.73;14.30;;;;;;;13.20;48.36;99893.63;10527010;28;20209;-73
2023/04/08 03:20:47;;;;;;;17.30;14.17;;;;;;;13.56;47.98;99933.69;10531990;28;20328;-72
2023/04/08 03:25:49;;;;;;;17.03;14.13;;;;;;;12.85;48.86;99881.00;10534208;28;20222;-72
2023/04/08 03:30:50;;;;;;;16.70;13.33;;;;;;;14.48;45.61;99939.53;10524317;28;20903;-72
2023/04/08 03:35:53;;;;;;;17.50;14.23;;;;;;;13.84;47.00;99919.31;10531024;28;20202;-72
2023/04/08 03:40:55;;;;;;;15.53;13.40;;;;;;;14.50;46.24;99945.53;10526553;28;20231;-73
2023/04/08 03:45:56;;;;;;;18.57;13.83;;;;;;;13.95;46.32;99907.97;10532427;28;20233;-73
2023/04/08 03:50:58;;;;;;;15.87;13.57;;;;;;;14.42;45.78;99939.53;10544700;28;20235;-72
2023/04/08 03:56:01;;;;;;;17.50;13.43;;;;;;;14.47;45.68;99945.94;10535757;28;20216;-72
2023/04/08 04:01:03;;;;;;;17.80;14.73;;;;;;;13.14;48.63;99889.84;10526544;28;20551;-72
2023/04/08 04:06:05;;;;;;;21.10;15.33;;;;;;;14.58;46.21;99949.91;10528186;28;20774;-72
2023/04/08 04:11:06;;;;;;;19.37;15.03;;;;;;;13.94;47.18;99943.97;10541721;28;20379;-70
2023/04/08 04:16:08;;;;;;;17.77;14.50;;;;;;;14.19;46.50;99933.50;10534045;28;20632;-73
2023/04/08 04:21:10;;;;;;;19.07;15.10;;;;;;;13.71;47.50;99914.72;10543375;28;21484;-72
2023/04/08 04:26:11;;;;;;;17.77;15.00;;;;;;;12.86;48.04;99873.81;10538257;28;20230;-72
2023/04/08 04:31:21;;;;;;;18.27;14.43;;;;;;;13.54;47.93;99935.75;10539498;28;20323;-72
2023/04/08 04:36:23;;;;;;;15.53;13.13;;;;;;;14.57;45.90;99954.44;10534204;27;20556;-72
2023/04/08 04:41:26;;;;;;;15.53;13.43;;;;;;;15.17;44.81;99982.41;10543540;27;20225;-73
2023/04/08 04:46:27;;;;;;;14.03;12.60;;;;;;;15.02;44.62;99978.06;10543498;28;20219;-73
2023/04/08 04:51:32;;;;;;;15.67;12.43;;;;;;;14.37;45.16;99950.91;10541518;27;20335;-73
2023/04/08 04:56:34;;;;;;;14.00;12.50;;;;;;;14.43;45.79;99966.25;10542346;27;20202;-73
2023/04/08 05:01:36;;;;;;;13.97;12.47;;;;;;;14.86;45.17;99983.88;10537471;27;20233;-73
2023/04/08 05:06:37;;;;;;;13.83;12.33;;;;;;;15.17;44.35;100003.97;10539179;27;20271;-73
2023/04/08 05:11:39;;;;;;;15.13;13.53;;;;;;;15.06;44.12;99998.16;10539987;27;20761;-73
2023/04/08 05:16:40;;;;;;;13.50;12.10;;;;;;;12.26;49.13;99916.25;10540594;27;20207;-73
2023/04/08 05:21:42;;;;;;;13.10;11.70;;;;;;;14.95;45.47;99991.56;10543062;27;20222;-73
2023/04/08 05:26:44;;;;;;;14.50;12.53;;;;;;;14.94;44.75;99981.81;10539822;27;20831;-73
2023/04/08 05:31:46;;;;;;;12.30;11.10;;;;;;;14.93;44.69;99982.88;10519158;28;20234;-71
2023/04/08 05:36:52;;;;;;;13.27;11.73;;;;;;;13.97;46.69;99980.38;10530414;27;20292;-72
2023/04/08 05:41:54;;;;;;;14.47;12.47;;;;;;;15.31;44.30;100013.69;10540805;28;20231;-71
2023/04/08 05:46:56;;;;;;;12.43;11.10;;;;;;;15.27;44.21;100018.69;10524122;28;20398;-71
2023/04/08 05:51:58;;;;;;;11.63;9.47;;;;;;;13.40;46.73;99961.75;10518554;28;20227;-71
2023/04/08 05:57:00;;;;;;;12.17;9.90;;;;;;;12.84;47.96;99962.63;10538398;28;20205;-72
2023/04/08 06:02:01;;;;;;;12.60;9.83;;;;;;;12.16;49.26;99952.28;10536355;28;20576;-72
2023/04/08 06:07:04;;;;;;;11.83;9.40;;;;;;;12.84;48.25;99988.63;10539587;27;20265;-72
2023/04/08 06:12:06;;;;;;;11.17;10.07;;;;;;;12.01;49.90;99967.56;10538974;28;20593;-71
2023/04/08 06:17:08;;;;;;;11.20;10.00;;;;;;;11.29;51.16;99945.03;10537574;28;20574;-72
2023/04/08 06:22:09;;;;;;;12.90;10.97;;;;;;;11.81;51.03;99999.53;10539695;28;20226;-72
2023/04/08 06:27:11;;;;;;;12.17;9.27;;;;;;;11.36;51.46;99958.53;10540704;28;20233;-72
2023/04/08 06:32:13;;;;;;;10.87;9.10;;;;;;;14.42;46.78;100023.81;10541026;27;20206;-72
2023/04/08 06:37:15;;;;;;;11.93;10.63;;;;;;;11.22;50.20;99912.78;10540841;28;20218;-72
2023/04/08 06:42:17;;;;;;;10.87;9.50;;;;;;;12.28;48.96;99982.13;10537297;28;20206;-72
2023/04/08 06:47:18;;;;;;;12.87;9.80;;;;;;;12.98;49.11;100022.63;10540280;27;20226;-72
2023/04/08 06:52:20;;;;;;;12.37;10.03;;;;;;;12.59;49.08;100004.31;10544173;27;20213;-72
2023/04/08 06:57:22;;;;;;;13.17;10.60;;;;;;;11.21;51.90;99974.59;10529726;28;20202;-72
2023/04/08 07:02:23;;;;;;;16.57;11.67;;;;;;;11.18;52.46;100015.13;10535615;28;20233;-72
2023/04/08 07:07:25;;;;;;;14.40;11.00;;;;;;;12.01;50.03;100040.00;10540330;28;20881;-73
2023/04/08 07:12:27;;;;;;;14.50;12.00;;;;;;;12.13;50.26;100046.56;10535789;28;20369;-72
2023/04/08 07:17:29;;;;;;;12.60;10.57;;;;;;;12.39;49.09;100039.81;10541343;28;20197;-72
2023/04/08 07:22:31;;;;;;;12.80;11.00;;;;;;;12.54;49.67;100072.84;10543148;27;20408;-72
2023/04/08 07:27:33;;;;;;;15.80;10.17;;;;;;;13.23;47.87;100044.53;10545645;27;20598;-72
2023/04/08 07:32:35;;;;;;;12.80;10.27;;;;;;;12.60;49.08;100071.22;10539904;27;20202;-72
2023/04/08 07:37:37;;;;;;;11.80;9.93;;;;;;;11.97;49.88;100052.13;10545014;27;20244;-73
2023/04/08 07:42:39;;;;;;;12.27;10.20;;;;;;;11.75;50.21;100067.31;10544348;27;20202;-72
2023/04/08 07:47:41;;;;;;;11.40;9.17;;;;;;;12.59;49.16;100076.78;10546191;27;20249;-72
2023/04/08 07:52:42;;;;;;;10.77;8.57;;;;;;;11.91;49.41;100058.22;10535101;28;20233;-73
2023/04/08 07:57:45;;;;;;;12.53;8.63;;;;;;;11.54;49.54;100051.91;10545476;27;20232;-72
2023/04/08 08:02:47;;;;;;;11.60;9.80;;;;;;;11.15;50.48;100072.56;10538076;28;20512;-73
2023/04/08 08:07:49;;;;;;;12.00;9.10;;;;;;;12.93;48.87;100105.66;10521981;28;20445;-71
2023/04/08 08:12:51;;;;;;;12.43;9.50;;;;;;;12.82;48.34;100124.94;10545496;28;20202;-73
2023/04/08 08:17:55;;;;;;;13.73;10.67;;;;;;;12.71;48.41;100128.97;10545865;27;20246;-72
2023/04/08 08:22:56;;;;;;;11.80;9.37;;;;;;;13.79;47.24;100099.31;10542934;27;20587;-73
2023/04/08 08:27:58;;;;;;;13.70;9.37;;;;;;;14.40;46.15;100133.56;10540709;28;20230;-73
2023/04/08 08:33:00;;;;;;;13.20;9.60;;;;;;;14.44;46.01;100131.28;10535374;28;20321;-73
2023/04/08 08:38:01;;;;;;;10.53;9.13;;;;;;;13.37;46.31;100111.84;10537364;27;20233;-73
2023/04/08 08:43:03;;;;;;;12.17;9.63;;;;;;;14.08;46.37;100143.16;10539422;27;20205;-71
2023/04/08 08:48:07;;;;;;;12.63;10.03;;;;;;;13.39;46.51;100142.88;10542176;28;20230;-73
2023/04/08 08:53:09;;;;;;;11.27;9.47;;;;;;;13.79;46.78;100137.78;10542766;27;20206;-73
2023/04/08 08:58:10;;;;;;;12.87;10.87;;;;;;;13.65;45.50;100153.00;10538613;27;20432;-73
2023/04/08 09:03:26;;;;;;;12.50;9.57;;;;;;;13.03;45.90;100081.16;10537752;28;20210;-72
2023/04/08 09:08:34;;;;;;;12.40;9.93;;;;;;;12.64;46.91;100122.72;10545304;28;20257;-73
2023/04/08 09:13:36;;;;;;;10.20;9.00;;;;;;;12.64;46.23;100106.59;10538620;28;20587;-72
2023/04/08 09:18:38;;;;;;;11.30;9.40;;;;;;;13.98;45.66;100160.44;10544162;27;20227;-72
2023/04/08 09:23:48;;;;;;;11.63;9.17;;;;;;;13.61;44.35;100130.19;10540898;27;20206;-73
2023/04/08 09:29:07;;;;;;;10.80;8.67;;;;;;;13.43;44.31;100105.66;10543086;28;20728;-73
2023/04/08 09:34:28;;;;;;;9.97;8.90;;;;;;;13.36;44.53;100170.16;10543286;28;20214;-73
2023/04/08 09:39:30;;;;;;;10.17;8.50;;;;;;;13.69;42.87;100110.41;10545538;28;20250;-73
2023/04/08 09:44:34;;;;;;;12.87;9.17;;;;;;;13.75;43.75;100146.44;10540980;27;20423;-73
2023/04/08 09:50:08;;;;;;;10.23;9.13;;;;;;;12.22;44.61;100127.75;10534586;28;20238;-72
2023/04/08 09:55:13;;;;;;;10.53;9.43;;;;;;;14.72;43.14;100175.09;10485855;28;20221;-73
2023/04/08 10:00:16;;;;;;;9.67;8.67;;;;;;;14.65;41.22;100112.31;10544261;27;20240;-73
2023/04/08 10:05:20;;;;;;;12.77;8.67;;;;;;;13.10;43.31;100069.41;10533566;28;20233;-73
2023/04/08 10:10:22;;;;;;;10.20;9.07;;;;;;;12.89;42.85;100113.25;10544367;28;20221;-73
2023/04/08 10:15:29;;;;;;;11.23;9.93;;;;;;;14.23;42.65;100130.38;10540022;27;20209;-73
2023/04/08 10:20:36;;;;;;;10.57;9.00;;;;;;;15.37;41.01;100158.47;10533678;28;20226;-73
2023/04/08 10:25:45;;;;;;;12.20;9.47;;;;;;;17.14;38.18;100174.56;10539631;28;20617;-73
2023/04/08 10:30:46;;;;;;;9.97;8.97;;;;;;;14.37;40.72;100080.97;10535662;28;20229;-73
2023/04/08 10:35:52;;;;;;;9.37;8.47;;;;;;;15.17;40.23;100127.94;10539789;28;20198;-73
2023/04/08 10:40:54;;;;;;;10.13;9.10;;;;;;;15.68;40.33;100078.78;10539842;28;20225;-73
2023/04/08 10:45:55;;;;;;;12.07;9.27;;;;;;;14.72;40.57;100029.66;10533429;28;20234;-73
2023/04/08 10:50:59;;;;;;;10.63;9.00;;;;;;;14.63;40.96;100047.06;10537829;28;20250;-73
2023/04/08 10:56:06;;;;;;;10.20;9.07;;;;;;;14.71;39.02;100108.81;10537163;28;20202;-70
2023/04/08 11:06:35;;;;;;;11.57;9.77;;;;;;;11.92;41.91;100108.16;10424630;28;20860;-72
2023/04/08 11:11:37;;;;;;;10.97;8.80;;;;;;;13.29;39.23;100116.34;10420935;28;20235;-72
2023/04/08 11:16:39;;;;;;;10.57;9.47;;;;;;;13.80;38.32;100115.25;10418424;28;20662;-72
2023/04/08 11:21:41;;;;;;;10.43;9.33;;;;;;;13.67;39.65;100115.97;10420268;28;20234;-72
2023/04/08 11:26:43;;;;;;;10.50;8.83;;;;;;;14.17;37.80;100083.59;10418144;28;20295;-72
2023/04/08 11:31:47;;;;;;;10.33;8.87;;;;;;;14.23;38.58;100132.25;10416933;28;20612;-72
2023/04/08 11:36:49;;;;;;;10.50;9.00;;;;;;;12.31;40.43;100091.72;10413841;28;20911;-72
2023/04/08 11:41:52;;;;;;;10.63;9.20;;;;;;;14.19;38.22;100086.91;10417344;28;20243;-72
2023/04/08 11:46:54;;;;;;;11.40;8.50;;;;;;;13.69;37.85;100061.19;10438358;28;20205;-70
2023/04/08 11:51:58;;;;;;;10.53;9.43;;;;;;;12.73;39.49;100055.25;10421095;28;20501;-72
2023/04/08 11:57:01;;;;;;;10.80;9.10;;;;;;;12.79;39.22;100077.84;10415559;28;20431;-72
2023/04/08 12:02:03;;;;;;;10.40;8.77;;;;;;;13.97;39.32;100091.53;10421904;28;20247;-70
2023/04/08 12:07:05;;;;;;;11.17;9.53;;;;;;;14.78;39.92;100093.50;10416253;28;20226;-72
2023/04/08 12:12:07;;;;;;;10.97;9.87;;;;;;;14.30;39.98;100098.94;10419510;28;20443;-71
2023/04/08 12:17:08;;;;;;;10.93;9.33;;;;;;;14.52;39.21;100093.41;10393994;28;20219;-72
2023/04/08 12:22:10;;;;;;;10.77;9.30;;;;;;;12.62;41.28;100060.31;10392433;28;20660;-72
2023/04/08 12:27:11;;;;;;;10.37;8.93;;;;;;;12.82;40.73;100066.72;10391880;28;20216;-72
2023/04/08 12:32:13;;;;;;;9.83;8.80;;;;;;;13.41;40.25;100078.16;10396106;28;20224;-71
2023/04/08 12:37:15;;;;;;;10.30;9.30;;;;;;;12.99;40.60;100087.91;10392976;28;20223;-72
2023/04/08 12:42:17;;;;;;;12.47;9.33;;;;;;;14.16;39.33;100099.94;10383962;28;20240;-72
2023/04/08 12:47:18;;;;;;;10.80;8.47;;;;;;;13.42;39.59;100044.88;10396054;28;20224;-72
2023/04/08 12:52:20;;;;;;;9.33;8.40;;;;;;;14.70;39.28;100066.75;10382830;28;20266;-72
2023/04/08 12:57:22;;;;;;;10.13;9.13;;;;;;;14.28;39.69;100044.50;10394093;28;20213;-72
2023/04/08 13:02:25;;;;;;;10.70;9.00;;;;;;;14.86;39.55;100040.47;10390909;28;20220;-72
2023/04/08 13:07:27;;;;;;;11.20;8.97;;;;;;;14.53;38.81;100058.22;10387519;28;20209;-70
2023/04/08 13:12:29;;;;;;;11.57;9.97;;;;;;;14.16;39.36;100032.66;10385198;28;20215;-72
2023/04/08 13:17:31;;;;;;;10.20;9.10;;;;;;;14.23;38.41;100046.13;10393062;28;20683;-72
2023/04/08 13:22:33;;;;;;;10.47;8.90;;;;;;;13.36;39.85;100010.72;10384466;28;20910;-72
2023/04/08 13:27:35;;;;;;;10.60;9.53;;;;;;;15.03;39.46;100055.19;10386091;28;20239;-72
2023/04/08 13:32:36;;;;;;;11.30;10.00;;;;;;;14.37;39.29;100056.75;10385729;28;20208;-72
2023/04/08 13:37:38;;;;;;;12.27;10.03;;;;;;;15.12;39.35;100047.72;10388684;28;20227;-72
2023/04/08 13:42:40;;;;;;;11.10;10.00;;;;;;;14.21;39.04;100057.09;10387104;28;20446;-72
2023/04/08 13:47:42;;;;;;;11.73;9.60;;;;;;;15.19;38.86;100037.75;10385840;28;20259;-72
2023/04/08 13:52:43;;;;;;;10.73;9.53;;;;;;;14.49;38.53;100018.44;10386452;28;20300;-72
2023/04/08 13:57:45;;;;;;;11.23;10.03;;;;;;;13.85;39.81;99988.22;10389885;28;20227;-72
2023/04/08 14:02:46;;;;;;;11.40;9.80;;;;;;;14.57;38.69;100019.06;10386245;28;20236;-72
2023/04/08 14:07:48;;;;;;;12.20;10.10;;;;;;;15.36;39.01;100013.88;10396251;28;20617;-73
2023/04/08 14:12:50;;;;;;;10.10;9.10;;;;;;;13.93;39.87;100016.81;10384364;28;20854;-72
2023/04/08 14:17:52;;;;;;;9.60;8.30;;;;;;;15.69;37.05;100021.13;10391271;28;20232;-72
2023/04/08 14:22:55;;;;;;;11.43;9.93;;;;;;;13.82;39.47;99999.41;10382923;28;20650;-72
2023/04/08 14:27:57;;;;;;;11.17;10.07;;;;;;;12.87;40.67;99964.91;10380593;28;20356;-72
2023/04/08 14:33:00;;;;;;;11.63;10.17;;;;;;;12.67;40.47;99959.38;10383626;28;20282;-72
2023/04/08 14:38:01;;;;;;;11.03;8.20;;;;;;;13.66;39.38;99977.16;10390712;28;20720;-72
2023/04/08 14:43:03;;;;;;;10.60;8.73;;;;;;;14.52;39.06;100001.88;10386815;28;20598;-72
2023/04/08 14:48:05;;;;;;;8.90;7.33;;;;;;;13.83;39.53;99991.13;10385744;28;20715;-72
2023/04/08 14:53:07;;;;;;;8.13;7.33;;;;;;;14.07;39.39;99982.72;10375150;28;20219;-72
2023/04/08 14:58:08;;;;;;;11.43;8.00;;;;;;;14.97;37.97;99974.38;10387966;28;20703;-72
2023/04/08 15:03:10;;;;;;;11.23;7.50;;;;;;;13.64;39.67;100008.81;10389366;28;20663;-72
2023/04/08 15:08:12;;;;;;;9.83;7.43;;;;;;;14.01;39.68;100009.38;10387293;28;20998;-72
2023/04/08 15:13:14;;;;;;;10.40;9.30;;;;;;;15.30;39.21;99976.97;10379502;28;20214;-71
2023/04/08 15:18:15;;;;;;;8.63;6.60;;;;;;;14.86;39.95;100006.25;10383135;28;20749;-70
2023/04/08 15:23:17;;;;;;;8.83;7.53;;;;;;;14.59;40.04;99994.63;10379743;28;20223;-72
2023/04/08 15:28:19;;;;;;;8.23;6.77;;;;;;;14.61;39.54;100008.72;10381786;28;20234;-72
2023/04/08 15:33:20;;;;;;;7.90;6.30;;;;;;;14.20;40.32;99978.19;10383223;28;20209;-72
2023/04/08 15:38:22;;;;;;;7.43;6.20;;;;;;;13.93;40.09;99950.38;10390090;28;20240;-72
2023/04/08 15:43:24;;;;;;;7.87;6.30;;;;;;;14.09;40.49;100007.56;10378002;28;20227;-72
2023/04/08 15:48:25;;;;;;;6.77;6.07;;;;;;;14.65;40.67;100020.75;10377870;28;20704;-72
2023/04/08 15:53:27;;;;;;;8.53;6.40;;;;;;;13.14;42.21;99946.25;10387675;28;20682;-72
2023/04/08 15:58:29;;;;;;;6.93;6.23;;;;;;;14.09;41.34;100002.19;10389109;28;20240;-72
2023/04/08 16:03:31;;;;;;;7.97;6.73;;;;;;;13.45;41.21;99988.88;10382364;28;20631;-72
2023/04/08 16:08:33;;;;;;;8.03;6.73;;;;;;;14.29;41.49;100007.63;10387836;28;20278;-72
2023/04/08 16:13:37;;;;;;;7.40;6.03;;;;;;;15.07;40.04;99974.75;10386216;28;20207;-72
2023/04/08 16:18:40;;;;;;;9.30;6.07;;;;;;;14.62;40.06;99953.00;10389308;28;20224;-70
2023/04/08 16:23:42;;;;;;;7.50;6.70;;;;;;;13.87;42.34;100009.53;10378965;28;20236;-71
2023/04/08 16:28:44;;;;;;;6.73;6.03;;;;;;;13.40;42.29;99977.06;10384917;28;20946;-72
2023/04/08 16:33:46;;;;;;;7.40;6.60;;;;;;;13.75;41.61;99979.69;10384535;28;20220;-72
2023/04/08 16:38:48;;;;;;;6.87;5.93;;;;;;;14.16;41.55;100021.91;10385834;28;21058;-72
2023/04/08 16:43:50;;;;;;;6.93;6.10;;;;;;;14.76;41.84;100020.13;10390172;28;20485;-72
2023/04/08 16:48:52;;;;;;;6.37;5.70;;;;;;;13.17;42.89;99974.63;10384957;28;20260;-72
2023/04/08 16:53:53;;;;;;;7.10;6.27;;;;;;;14.67;40.95;99999.00;10387130;28;20211;-71
2023/04/08 16:58:59;;;;;;;7.60;5.67;;;;;;;12.08;43.75;99897.91;10387458;28;20592;-72
2023/04/08 17:04:00;;;;;;;8.10;5.70;;;;;;;13.78;42.16;100028.53;10389174;28;20235;-72
2023/04/08 17:09:02;;;;;;;8.27;6.57;;;;;;;13.17;42.52;100005.00;10386030;28;20718;-72
2023/04/08 17:14:04;;;;;;;7.40;5.80;;;;;;;13.90;42.06;100038.72;10379222;28;20688;-73
2023/04/08 17:19:06;;;;;;;7.70;6.43;;;;;;;12.92;43.18;100007.28;10385334;28;20327;-73
2023/04/08 17:24:08;;;;;;;9.13;6.67;;;;;;;13.10;43.15;100010.31;10383944;28;20221;-73
2023/04/08 17:29:09;;;;;;;7.27;6.57;;;;;;;11.84;45.05;99942.84;10376761;28;20237;-73
2023/04/08 17:34:11;;;;;;;7.90;7.10;;;;;;;13.43;43.10;100047.38;10382210;28;20208;-73
2023/04/08 17:39:12;;;;;;;7.63;6.80;;;;;;;11.30;45.02;99940.50;10383124;28;20231;-73
2023/04/08 17:44:14;;;;;;;7.77;6.90;;;;;;;12.85;43.03;100035.94;10379479;28;20507;-73
2023/04/08 17:49:15;;;;;;;8.50;6.67;;;;;;;13.94;42.45;100048.88;10392197;28;20239;-73
2023/04/08 17:54:17;;;;;;;8.87;7.37;;;;;;;13.56;42.60;100072.69;10378054;28;20304;-73
2023/04/08 17:59:19;;;;;;;7.50;6.27;;;;;;;13.66;43.12;100098.19;10386982;28;20236;-73
2023/04/08 18:04:21;;;;;;;7.60;6.80;;;;;;;13.93;42.31;100074.13;10376775;28;20227;-74
2023/04/08 18:09:23;;;;;;;8.03;6.43;;;;;;;13.57;42.78;100072.47;10380787;28;20228;-73
2023/04/08 18:14:27;;;;;;;7.63;6.53;;;;;;;14.51;42.26;100087.22;10377954;28;20219;-73
2023/04/08 18:19:29;;;;;;;7.67;6.87;;;;;;;13.32;43.81;100095.47;10386331;28;20235;-73
2023/04/08 18:24:30;;;;;;;8.87;6.70;;;;;;;13.55;42.99;100111.34;10383563;28;20228;-74
2023/04/08 18:29:32;;;;;;;7.87;6.90;;;;;;;13.63;42.58;100095.06;10385080;28;20228;-73
2023/04/08 18:34:34;;;;;;;10.30;7.33;;;;;;;14.66;41.52;100078.97;10387589;28;20414;-73
2023/04/08 18:39:39;;;;;;;9.00;7.87;;;;;;;13.67;42.66;100090.97;10383249;28;20240;-74
2023/04/08 18:44:41;;;;;;;10.53;7.40;;;;;;;12.90;44.22;100106.84;10390213;28;20220;-73
2023/04/08 18:49:43;;;;;;;10.87;6.40;;;;;;;13.69;43.02;100102.34;10380607;28;20243;-73
2023/04/08 18:54:44;;;;;;;10.40;8.00;;;;;;;13.91;42.56;100104.97;10388817;28;20630;-73
2023/04/08 18:59:49;;;;;;;9.63;8.27;;;;;;;14.23;42.19;100126.88;10383511;28;20536;-73
2023/04/08 19:04:51;;;;;;;8.93;7.57;;;;;;;13.91;43.10;100148.81;10371635;28;20240;-73
2023/04/08 19:09:59;;;;;;;7.87;6.60;;;;;;;13.21;43.69;100111.06;10384026;28;20781;-72
2023/04/08 19:15:02;;;;;;;6.93;6.23;;;;;;;13.54;43.60;100152.72;10381101;28;20205;-72
2023/04/08 19:20:05;;;;;;;8.23;7.27;;;;;;;13.81;43.10;100167.16;10387057;28;20228;-72
2023/04/08 19:25:07;;;;;;;7.80;6.67;;;;;;;13.07;43.75;100123.53;10377369;28;20220;-72
2023/04/08 19:30:09;;;;;;;9.77;7.17;;;;;;;14.32;42.22;100134.56;10391485;28;20229;-72
2023/04/08 19:35:12;;;;;;;7.60;6.27;;;;;;;14.74;41.62;100145.28;10388987;28;20844;-72
2023/04/08 19:40:13;;;;;;;8.53;6.87;;;;;;;14.39;41.64;100111.22;10386792;28;20610;-72
2023/04/08 19:45:16;;;;;;;8.80;6.70;;;;;;;14.28;41.90;100170.19;10389450;28;20240;-71
2023/04/08 19:50:20;;;;;;;7.50;5.93;;;;;;;14.91;41.44;100176.25;10394107;28;20228;-72
2023/04/08 19:55:22;;;;;;;6.73;5.47;;;;;;;13.01;42.80;100132.38;10387225;28;20855;-71
2023/04/08 20:00:26;;;;;;;6.30;5.57;;;;;;;12.43;44.24;100137.69;10386052;28;20263;-71
2023/04/08 20:05:28;;;;;;;5.93;5.10;;;;;;;14.33;41.77;100198.16;10401416;28;20653;-71
2023/04/08 20:10:30;;;;;;;5.17;4.60;;;;;;;14.10;42.14;100202.97;10391710;28;20239;-72
2023/04/08 20:15:34;;;;;;;6.77;5.40;;;;;;;13.94;42.03;100158.38;10384146;28;20457;-72
2023/04/08 20:20:35;;;;;;;5.57;4.80;;;;;;;14.03;42.06;100208.28;10389629;28;20443;-72
2023/04/08 20:25:37;;;;;;;6.70;5.63;;;;;;;13.97;41.09;100149.88;10395806;28;20307;-72
2023/04/08 20:30:39;;;;;;;5.17;4.57;;;;;;;14.44;41.11;100212.88;10385550;28;20232;-72
2023/04/08 20:35:41;;;;;;;5.97;4.60;;;;;;;12.87;41.63;100130.56;10395886;28;20204;-72
2023/04/08 20:40:43;;;;;;;5.93;5.03;;;;;;;13.88;41.58;100202.19;10385725;28;20397;-71
2023/04/08 20:45:44;;;;;;;4.50;4.10;;;;;;;13.70;41.35;100197.28;10394208;28;20744;-72
2023/04/08 20:50:49;;;;;;;6.57;4.13;;;;;;;13.03;41.97;100180.56;10385965;28;20240;-72
2023/04/08 20:55:51;;;;;;;5.63;4.50;;;;;;;11.36;43.77;100085.25;10386826;28;20682;-72
2023/04/08 21:00:53;;;;;;;5.03;4.10;;;;;;;14.94;40.06;100196.53;10386113;28;20499;-72
2023/04/08 21:05:55;;;;;;;4.37;3.97;;;;;;;14.56;40.27;100211.31;10391265;28;20276;-72
2023/04/08 21:10:56;;;;;;;4.93;4.43;;;;;;;12.34;41.89;100117.38;10381281;28;20236;-72
2023/04/08 21:15:58;;;;;;;5.37;4.33;;;;;;;14.72;39.72;100191.25;10384060;28;20197;-72
2023/04/08 21:21:00;;;;;;;4.50;4.10;;;;;;;14.27;40.28;100225.84;10384286;28;20233;-72
2023/04/08 21:26:02;;;;;;;5.07;4.00;;;;;;;15.17;39.07;100189.94;10380110;28;20750;-72
2023/04/08 21:31:11;;;;;;;7.37;5.07;;;;;;;15.00;39.08;100187.66;10385049;28;20238;-72
2023/04/08 21:36:12;;;;;;;4.33;3.93;;;;;;;14.21;39.94;100162.06;10387851;28;20209;-71
2023/04/08 21:41:16;;;;;;;5.87;3.80;;;;;;;13.35;40.77;100202.59;10380258;28;20334;-72
2023/04/08 21:46:17;;;;;;;4.63;4.23;;;;;;;13.92;40.80;100206.13;10383442;28;20771;-71
2023/04/08 21:51:19;;;;;;;4.90;4.40;;;;;;;13.04;41.61;100161.56;10389583;28;20227;-71
2023/04/08 21:56:21;;;;;;;5.73;4.67;;;;;;;12.70;42.77;100175.63;10380400;28;20209;-71
2023/04/08 22:01:22;;;;;;;5.40;4.90;;;;;;;12.07;43.30;100135.81;10382474;28;20274;-71
2023/04/08 22:06:25;;;;;;;6.87;5.23;;;;;;;12.96;42.70;100193.91;10383133;28;20232;-72
2023/04/08 22:11:33;;;;;;;5.40;4.90;;;;;;;12.53;43.20;100175.03;10381789;28;20339;-71
2023/04/08 22:16:35;;;;;;;6.23;5.03;;;;;;;12.43;44.02;100166.41;10386689;28;20208;-71
2023/04/08 22:21:37;;;;;;;5.60;5.00;;;;;;;13.40;42.40;100186.72;10382381;28;20446;-71
2023/04/08 22:26:38;;;;;;;6.30;4.97;;;;;;;13.41;42.17;100205.34;10380354;28;20286;-71
2023/04/08 22:31:40;;;;;;;5.57;5.07;;;;;;;12.04;43.12;100114.72;10384381;28;20239;-71
2023/04/08 22:36:42;;;;;;;5.03;4.53;;;;;;;12.63;43.66;100180.91;10391243;28;20558;-72
2023/04/08 22:41:44;;;;;;;5.00;4.50;;;;;;;11.81;44.21;100137.13;10383368;28;20714;-72
2023/04/08 22:46:45;;;;;;;5.00;4.50;;;;;;;13.10;42.58;100194.88;10381729;28;20229;-72
2023/04/08 22:51:48;;;;;;;4.47;4.07;;;;;;;12.01;43.61;100155.31;10386648;28;20844;-71
2023/04/08 22:56:49;;;;;;;5.20;4.70;;;;;;;14.02;41.61;100185.94;10381229;28;20366;-72
2023/04/08 23:01:51;;;;;;;4.90;4.40;;;;;;;12.68;41.73;100146.28;10385515;28;20251;-71
2023/04/08 23:06:53;;;;;;;5.00;4.50;;;;;;;14.27;40.82;100190.84;10378184;28;20227;-72
2023/04/08 23:11:54;;;;;;;7.00;4.30;;;;;;;14.62;40.65;100195.38;10378979;28;20278;-72